Newport News Williamsburg International Airport
KPHF : now visible

Airfield :











YOU CAN JOIN US ON...

 
LOGIN :

Register | Disclaimer

   EN    FR    IT 

 









Legend :    VFR   Marginal VFR   IFR   Intensive IFR   Very Intensive IFR
Visi :
Ceiling :
>= 8 km
>= 3000ft
5 to 8 km
1000 to 3000 ft
1500m to 5 km
500 to 1000 ft
800 to 1500m
200 to 500 ft
< 800m
< 200 ft
Symbols :   Thunderstorms  Fog  Heavy snow  Heavy precipitations  Wind > 20 kt






- Airport Elevation : 42 ft
- IATA code : PHF


KPHF - Newport News Williamsburg International

CURRENT METAR :
  • 201754Z 00000KT 10SM CLR 23/18 A3023 RMK AO2 SLP237 T02280178 10233 20189 58008 $

EXPIRED METARs :
  • 201725Z 11003KT 10SM SCT010 22/18 A3024 RMK AO2 T02220178 $
  • 201654Z 00000KT 10SM OVC008 22/18 A3025 RMK AO2 SLP243 T02170178
  • 201554Z 00000KT 10SM OVC005 21/17 A3026 RMK AO2 SLP246 T02110172
  • 201539Z 00000KT 10SM OVC005 21/18 A3026 RMK AO2 T02060178
  • 201454Z 00000KT 6SM HZ OVC004 20/17 A3026 RMK AO2 SLP245 T02000172 53005

TAF KPHF
Valid from the 20 at 18:00 until the 21 at 18:00 UTC


201726Z 2018/2118 00000KT P6SM BKN015
FM201900 00000KT P6SM SCT015 BKN050
FM210300 VRB03KT 4SM BR BKN015
FM210600 VRB03KT 1SM BR BKN009
FM211500 VRB03KT P6SM BKN015
FM211700 14004KT P6SM SCT120
KZDC FIR / North America



MET'MAP, your aeronautical weather chart ! - Copyright ORBIFLY December 2007 - Disclaimer

ORBIFLY MET'MAP TEAM :

Programming & Development : Alexandra Zaïnal
Concept & original design : Baudouin d'Aumeries
Assistance for programming : Marc-Olivier Méhu
Technical & hardware support : Manuel Goepfert

Contact : metmap@orbifly.com




SOURCES & CREDITS :

   NOAA       Earth
Advisory